createdAt,value
2019-05-26T00:01:31.019Z,99410.14
2019-05-26T00:04:03.289Z,99410.98
2019-05-26T00:06:36.074Z,99415.97
2019-05-26T00:09:08.040Z,99415.13
2019-05-26T00:11:40.317Z,99412.05
2019-05-26T00:14:12.695Z,99410.98
2019-05-26T00:16:45.275Z,99417.90
2019-05-26T00:19:17.757Z,99419.41
2019-05-26T00:21:49.930Z,99416.30
2019-05-26T00:24:22.263Z,99411.61
2019-05-26T00:26:54.687Z,99413.98
2019-05-26T00:29:26.546Z,99405.97
2019-05-26T00:31:59.432Z,99409.72
2019-05-26T00:34:31.502Z,99410.23
2019-05-26T00:37:03.880Z,99410.58
2019-05-26T00:39:36.360Z,99416.97
2019-05-26T00:42:08.744Z,99416.75
2019-05-26T00:44:41.036Z,99424.63
2019-05-26T00:47:13.385Z,99425.15
2019-05-26T00:49:45.557Z,99419.73
2019-05-26T00:52:17.829Z,99429.12
2019-05-26T00:54:50.206Z,99426.12
2019-05-26T00:57:22.594Z,99419.94
2019-05-26T00:59:54.649Z,99420.80
2019-05-26T01:02:27.030Z,99420.14
2019-05-26T01:04:59.562Z,99412.69
2019-05-26T01:07:31.783Z,99420.06
2019-05-26T01:10:06.496Z,99420.58
2019-05-26T01:12:38.581Z,99411.20
2019-05-26T01:15:10.857Z,99426.77
2019-05-26T01:17:43.435Z,99425.67
2019-05-26T01:20:15.607Z,99423.45
2019-05-26T01:22:47.779Z,99419.70
2019-05-26T01:25:19.854Z,99418.46
2019-05-26T01:27:52.231Z,99421.23
2019-05-26T01:30:27.774Z,99420.45
2019-05-26T01:32:59.742Z,99423.44
2019-05-26T01:35:32.121Z,99422.59
2019-05-26T01:38:04.401Z,99426.21
2019-05-26T01:40:41.155Z,99433.27
2019-05-26T01:43:13.122Z,99431.87
2019-05-26T01:45:45.207Z,99437.73
2019-05-26T01:48:17.182Z,99435.09
2019-05-26T01:50:49.348Z,99435.07
2019-05-26T01:53:21.620Z,99442.86
2019-05-26T01:55:53.696Z,99439.84
2019-05-26T01:58:26.061Z,99441.23
2019-05-26T02:00:58.546Z,99446.89
2019-05-26T02:03:31.019Z,99439.23
2019-05-26T02:06:02.988Z,99444.89
2019-05-26T02:08:39.499Z,99441.14
2019-05-26T02:11:08.941Z,99453.27
2019-05-26T02:13:40.839Z,99450.41
2019-05-26T02:16:13.015Z,99450.28
2019-05-26T02:18:44.986Z,99454.55
2019-05-26T02:21:17.157Z,99454.55
2019-05-26T02:23:49.320Z,99463.52
2019-05-26T02:26:21.493Z,99460.63
2019-05-26T02:28:53.874Z,99459.98
2019-05-26T02:31:26.052Z,99460.19
2019-05-26T02:33:58.421Z,99469.45
2019-05-26T02:36:30.902Z,99463.35
2019-05-26T02:39:03.662Z,99476.90
2019-05-26T02:41:35.650Z,99478.93
2019-05-26T02:44:08.131Z,99485.03
2019-05-26T02:46:40.397Z,99483.03
2019-05-26T02:49:12.777Z,99480.88
2019-05-26T02:51:44.848Z,99482.48
2019-05-26T02:54:17.329Z,99486.63
2019-05-26T02:56:49.617Z,99484.63
2019-05-26T02:59:21.877Z,99490.48
2019-05-26T03:02:03.266Z,99492.42
2019-05-26T03:04:28.164Z,99489.44
2019-05-26T03:07:00.956Z,99486.78
2019-05-26T03:09:35.173Z,99488.41
2019-05-26T03:12:07.313Z,99483.89
2019-05-26T03:14:40.230Z,99490.67
2019-05-26T03:17:12.182Z,99495.88
2019-05-26T03:19:46.006Z,99493.20
2019-05-26T03:22:19.261Z,99490.83
2019-05-26T03:24:53.451Z,99491.11
2019-05-26T03:27:26.006Z,99497.19
2019-05-26T03:29:57.970Z,99497.12
2019-05-26T03:32:30.562Z,99498.50
2019-05-26T03:35:02.729Z,99503.72
2019-05-26T03:37:34.890Z,99500.56
2019-05-26T03:40:09.115Z,99503.27
2019-05-26T03:42:41.386Z,99502.03
2019-05-26T03:45:33.706Z,99515.92
2019-05-26T03:48:06.000Z,99514.61
2019-05-26T03:50:39.604Z,99518.02
2019-05-26T03:53:12.076Z,99524.17
2019-05-26T03:55:44.354Z,99527.36
2019-05-26T03:58:16.319Z,99533.73
2019-05-26T04:00:48.693Z,99533.84
2019-05-26T04:03:20.790Z,99544.37
2019-05-26T04:05:52.841Z,99537.47
2019-05-26T04:08:25.013Z,99541.66
2019-05-26T04:10:57.605Z,99540.98
2019-05-26T04:13:29.765Z,99544.98
2019-05-26T04:16:01.938Z,99546.19
2019-05-26T04:18:34.012Z,99556.34
2019-05-26T04:21:06.074Z,99558.30
2019-05-26T04:23:38.241Z,99551.59
2019-05-26T04:26:10.725Z,99562.95
2019-05-26T04:28:42.796Z,99564.64
2019-05-26T04:31:15.269Z,99568.44
2019-05-26T04:33:47.445Z,99563.92
2019-05-26T04:36:19.509Z,99561.66
2019-05-26T04:38:51.477Z,99569.18
2019-05-26T04:41:24.061Z,99572.57
2019-05-26T04:43:56.534Z,99568.19
2019-05-26T04:46:28.913Z,99572.89
2019-05-26T04:49:01.194Z,99572.86
2019-05-26T04:51:34.299Z,99576.40
2019-05-26T04:54:06.768Z,99569.52
2019-05-26T04:56:39.263Z,99573.84
2019-05-26T04:59:11.207Z,99581.95
2019-05-26T05:01:43.591Z,99578.12
2019-05-26T05:04:15.963Z,99586.16
2019-05-26T05:06:48.645Z,99579.60
2019-05-26T05:09:21.018Z,99575.43
2019-05-26T05:11:53.296Z,99575.22
2019-05-26T05:14:26.697Z,99581.16
2019-05-26T05:16:59.096Z,99579.86
2019-05-26T05:19:33.299Z,99575.83
2019-05-26T05:22:05.786Z,99574.97
2019-05-26T05:24:37.644Z,99577.56
2019-05-26T05:27:10.136Z,99577.36
2019-05-26T05:29:42.599Z,99578.98
2019-05-26T05:32:14.885Z,99580.83
2019-05-26T05:34:47.184Z,99573.18
2019-05-26T05:37:19.329Z,99570.68
2019-05-26T05:39:51.711Z,99581.83
2019-05-26T05:42:24.092Z,99578.84
2019-05-26T05:44:56.666Z,99571.30
2019-05-26T05:47:29.142Z,99585.85
2019-05-26T05:50:01.635Z,99592.75
2019-05-26T05:52:33.795Z,99583.87
2019-05-26T05:55:06.264Z,99586.00
2019-05-26T05:57:38.417Z,99587.03
2019-05-26T06:00:10.602Z,99587.25
2019-05-26T06:02:42.927Z,99599.13
2019-05-26T06:05:15.030Z,99589.36
2019-05-26T06:07:48.344Z,99574.33
2019-05-26T06:10:20.833Z,99583.82
2019-05-26T06:12:53.099Z,99587.18
2019-05-26T06:15:25.058Z,99587.41
2019-05-26T06:17:57.400Z,99583.15
2019-05-26T06:20:29.661Z,99585.23
2019-05-26T06:23:01.686Z,99596.59
2019-05-26T06:25:34.090Z,99608.62
2019-05-26T06:28:06.440Z,99600.27
2019-05-26T06:30:40.572Z,99603.81
2019-05-26T06:33:12.953Z,99601.67
2019-05-26T06:35:45.230Z,99605.83
2019-05-26T06:38:17.587Z,99609.30
2019-05-26T06:40:53.718Z,99612.51
2019-05-26T06:43:29.320Z,99620.27
2019-05-26T06:46:02.642Z,99614.37
2019-05-26T06:48:35.023Z,99615.41
2019-05-26T06:51:07.427Z,99614.48
2019-05-26T06:53:39.808Z,99619.63
2019-05-26T06:56:11.874Z,99624.16
2019-05-26T06:58:44.243Z,99632.76
2019-05-26T07:01:17.584Z,99630.65
2019-05-26T07:03:49.847Z,99634.03
2019-05-26T07:06:21.558Z,99637.55
2019-05-26T07:08:53.738Z,99630.74
2019-05-26T07:11:25.708Z,99637.87
2019-05-26T07:13:57.865Z,99634.87
2019-05-26T07:16:37.983Z,99647.21
2019-05-26T07:19:03.787Z,99648.05
2019-05-26T07:21:36.125Z,99648.11
2019-05-26T07:24:08.088Z,99638.89
2019-05-26T07:26:40.470Z,99629.02
2019-05-26T07:29:12.706Z,99642.98
2019-05-26T07:31:44.688Z,99635.90
2019-05-26T07:34:17.946Z,99656.33
2019-05-26T07:36:50.503Z,99646.47
2019-05-26T07:39:22.686Z,99649.50
2019-05-26T07:42:09.414Z,99660.65
2019-05-26T07:44:29.167Z,99657.87
2019-05-26T07:47:06.380Z,99653.75
2019-05-26T07:49:38.733Z,99661.16
2019-05-26T07:52:11.439Z,99660.70
2019-05-26T07:54:44.067Z,99660.01
2019-05-26T07:57:17.357Z,99659.64
2019-05-26T07:59:50.724Z,99653.91
2019-05-26T08:02:23.753Z,99660.78
2019-05-26T08:04:56.376Z,99667.48
2019-05-26T08:07:28.793Z,99670.72
2019-05-26T08:10:01.486Z,99656.74
2019-05-26T08:12:34.689Z,99653.13
2019-05-26T08:15:07.522Z,99652.67
2019-05-26T08:17:40.178Z,99651.66
2019-05-26T08:20:13.353Z,99670.16
2019-05-26T08:22:46.383Z,99673.11
2019-05-26T08:25:18.978Z,99665.45
2019-05-26T08:27:51.432Z,99661.45
2019-05-26T08:30:23.509Z,99665.77
2019-05-26T08:32:55.886Z,99661.84
2019-05-26T08:35:28.345Z,99656.22
2019-05-26T08:38:00.998Z,99669.15
2019-05-26T08:40:33.485Z,99657.68
2019-05-26T08:43:06.104Z,99659.09
2019-05-26T08:45:38.038Z,99667.13
2019-05-26T08:48:10.304Z,99663.13
2019-05-26T08:50:42.314Z,99660.22
2019-05-26T08:53:14.865Z,99672.70
2019-05-26T08:55:47.195Z,99673.03
2019-05-26T08:58:19.366Z,99690.40
2019-05-26T09:00:52.277Z,99678.00
2019-05-26T09:03:25.714Z,99679.16
2019-05-26T09:05:58.145Z,99682.46
2019-05-26T09:08:30.541Z,99661.87
2019-05-26T09:11:03.045Z,99668.89
2019-05-26T09:13:35.533Z,99665.24
2019-05-26T09:16:08.520Z,99664.95
2019-05-26T09:18:40.790Z,99674.11
2019-05-26T09:21:13.401Z,99661.77
2019-05-26T09:23:45.811Z,99683.86
2019-05-26T09:26:18.419Z,99685.30
2019-05-26T09:28:50.493Z,99676.45
2019-05-26T09:31:22.760Z,99675.84
2019-05-26T09:33:55.243Z,99677.22
2019-05-26T09:36:27.926Z,99686.70
2019-05-26T09:39:00.197Z,99696.11
2019-05-26T09:41:32.194Z,99673.59
2019-05-26T09:44:04.434Z,99674.13
2019-05-26T09:46:36.713Z,99691.02
2019-05-26T09:49:08.696Z,99684.71
2019-05-26T09:51:40.748Z,99685.00
2019-05-26T09:54:13.183Z,99686.69
2019-05-26T09:56:45.142Z,99686.98
2019-05-26T09:59:17.564Z,99682.94
2019-05-26T10:01:49.830Z,99688.55
2019-05-26T10:04:22.321Z,99688.72
2019-05-26T10:06:54.598Z,99700.10
2019-05-26T10:09:26.662Z,99690.09
2019-05-26T10:11:58.902Z,99679.16
2019-05-26T10:14:30.975Z,99674.20
2019-05-26T10:17:03.259Z,99694.78
2019-05-26T10:19:35.527Z,99698.56
2019-05-26T10:22:07.603Z,99692.22
2019-05-26T10:24:39.453Z,99711.92
2019-05-26T10:27:11.624Z,99677.91
2019-05-26T10:29:44.816Z,99683.34
2019-05-26T10:32:16.873Z,99693.65
2019-05-26T10:34:49.073Z,99688.52
2019-05-26T10:37:21.241Z,99689.65
2019-05-26T10:39:53.446Z,99696.44
2019-05-26T10:42:25.782Z,99730.12
2019-05-26T10:44:57.866Z,99727.05
2019-05-26T10:47:30.245Z,99709.54
2019-05-26T10:50:02.303Z,99725.80
2019-05-26T10:52:34.524Z,99711.22
2019-05-26T10:55:07.554Z,99708.53
2019-05-26T10:57:40.092Z,99696.23
2019-05-26T11:00:12.412Z,99695.11
2019-05-26T11:02:44.686Z,99698.55
2019-05-26T11:05:17.099Z,99701.70
2019-05-26T11:07:49.534Z,99705.63
2019-05-26T11:10:21.396Z,99701.11
2019-05-26T11:12:53.882Z,99695.28
2019-05-26T11:15:25.944Z,99685.18
2019-05-26T11:17:58.315Z,99700.98
2019-05-26T11:20:30.489Z,99690.19
2019-05-26T11:23:02.759Z,99693.97
2019-05-26T11:25:34.929Z,99710.64
2019-05-26T11:28:07.205Z,99723.09
2019-05-26T11:30:39.356Z,99715.61
2019-05-26T11:33:11.548Z,99727.63
2019-05-26T11:35:43.612Z,99721.88
2019-05-26T11:38:15.382Z,99745.73
2019-05-26T11:40:47.913Z,99729.86
2019-05-26T11:43:20.448Z,99724.19
2019-05-26T11:45:53.408Z,99718.25
2019-05-26T11:48:26.217Z,99733.42
2019-05-26T11:50:58.384Z,99740.77
2019-05-26T11:53:31.134Z,99734.69
2019-05-26T11:56:03.231Z,99727.83
2019-05-26T11:58:35.498Z,99737.16
2019-05-26T12:01:08.145Z,99733.50
2019-05-26T12:03:40.573Z,99739.63
2019-05-26T12:06:12.901Z,99730.75
2019-05-26T12:08:45.132Z,99743.23
2019-05-26T12:11:17.396Z,99743.86
2019-05-26T12:13:49.751Z,99755.89
2019-05-26T12:16:21.888Z,99737.91
2019-05-26T12:18:55.223Z,99731.00
2019-05-26T12:21:27.693Z,99730.68
2019-05-26T12:23:59.934Z,99730.93
2019-05-26T12:26:31.907Z,99730.03
2019-05-26T12:29:04.270Z,99717.48
2019-05-26T12:31:36.342Z,99718.98
2019-05-26T12:34:08.304Z,99736.23
2019-05-26T12:36:40.612Z,99749.25
2019-05-26T12:39:13.485Z,99724.53
2019-05-26T12:41:45.855Z,99717.68
2019-05-26T12:44:18.245Z,99705.60
2019-05-26T12:46:50.187Z,99719.20
2019-05-26T12:49:22.452Z,99725.48
2019-05-26T12:51:54.519Z,99718.50
2019-05-26T12:54:26.852Z,99705.53
2019-05-26T12:56:59.073Z,99706.27
2019-05-26T12:59:31.132Z,99737.11
2019-05-26T13:02:03.323Z,99763.48
2019-05-26T13:04:35.585Z,99749.05
2019-05-26T13:07:07.848Z,99763.14
2019-05-26T13:09:40.128Z,99782.59
2019-05-26T13:12:12.496Z,99760.13
2019-05-26T13:14:44.769Z,99766.23
2019-05-26T13:17:16.836Z,99756.34
2019-05-26T13:19:49.425Z,99748.13
2019-05-26T13:22:21.706Z,99746.70
2019-05-26T13:24:53.968Z,99747.63
2019-05-26T13:27:26.431Z,99742.52
2019-05-26T13:29:58.976Z,99738.45
2019-05-26T13:32:30.883Z,99740.70
2019-05-26T13:35:02.849Z,99743.48
2019-05-26T13:37:34.756Z,99746.25
2019-05-26T13:40:08.227Z,99755.63
2019-05-26T13:42:40.489Z,99754.34
2019-05-26T13:45:22.496Z,99755.98
2019-05-26T13:47:46.408Z,99762.02
2019-05-26T13:50:18.649Z,99766.93
2019-05-26T13:52:52.151Z,99784.83
2019-05-26T13:55:24.428Z,99780.00
2019-05-26T13:57:56.689Z,99785.77
2019-05-26T14:00:28.964Z,99795.94
2019-05-26T14:03:01.244Z,99815.23
2019-05-26T14:05:33.516Z,99881.23
2019-05-26T14:08:05.686Z,99847.63
2019-05-26T14:10:37.973Z,99858.42
2019-05-26T14:13:10.629Z,99856.80
2019-05-26T14:15:43.093Z,99847.69
2019-05-26T14:18:18.085Z,99842.80
2019-05-26T14:20:48.906Z,99833.20
2019-05-26T14:23:20.965Z,99839.69
2019-05-26T14:25:53.136Z,99846.81
2019-05-26T14:28:25.004Z,99865.80
2019-05-26T14:30:57.582Z,99850.90
2019-05-26T14:33:29.860Z,99863.48
2019-05-26T14:36:02.271Z,99864.00
2019-05-26T14:38:43.090Z,99873.97
2019-05-26T14:41:08.621Z,99872.28
2019-05-26T14:43:40.899Z,99871.22
2019-05-26T14:46:12.961Z,99872.52
2019-05-26T14:48:45.029Z,99874.27
2019-05-26T14:51:17.202Z,99877.83
2019-05-26T14:53:49.470Z,99876.74
2019-05-26T14:56:21.469Z,99872.22
2019-05-26T14:58:53.615Z,99869.59
2019-05-26T15:01:26.088Z,99866.94
2019-05-26T15:04:00.406Z,99865.16
2019-05-26T15:06:32.677Z,99862.77
2019-05-26T15:09:07.520Z,99864.09
2019-05-26T15:11:39.497Z,99866.67
2019-05-26T15:14:11.744Z,99854.72
2019-05-26T15:16:43.912Z,99856.73
2019-05-26T15:19:16.085Z,99873.92
2019-05-26T15:21:48.454Z,99877.22
2019-05-26T15:24:20.732Z,99879.00
2019-05-26T15:26:53.101Z,99882.42
2019-05-26T15:29:25.172Z,99880.20
2019-05-26T15:31:57.339Z,99878.11
2019-05-26T15:34:29.300Z,99886.94
2019-05-26T15:37:01.264Z,99889.91
2019-05-26T15:39:33.491Z,99901.61
2019-05-26T15:42:08.347Z,99901.84
2019-05-26T15:44:39.848Z,99896.84
2019-05-26T15:47:12.031Z,99902.84
2019-05-26T15:49:44.360Z,99912.92
2019-05-26T15:52:16.529Z,99922.63
2019-05-26T15:54:48.596Z,99920.11
2019-05-26T15:57:20.466Z,99920.64
2019-05-26T15:59:54.585Z,99923.88
2019-05-26T16:02:26.337Z,99921.85
2019-05-26T16:04:59.138Z,99922.98
2019-05-26T16:07:31.195Z,99929.47
2019-05-26T16:10:04.274Z,99933.31
2019-05-26T16:12:36.044Z,99939.13
2019-05-26T16:15:08.615Z,99943.06
2019-05-26T16:17:40.576Z,99948.71
2019-05-26T16:20:12.451Z,99954.62
2019-05-26T16:22:44.383Z,99962.90
2019-05-26T16:25:16.517Z,99961.88
2019-05-26T16:27:48.234Z,99965.77
2019-05-26T16:30:20.202Z,99966.94
2019-05-26T16:32:52.265Z,99969.38
2019-05-26T16:35:24.437Z,99970.75
2019-05-26T16:37:56.514Z,99963.89
2019-05-26T16:40:28.676Z,99970.27
2019-05-26T16:43:00.535Z,99973.18
2019-05-26T16:45:36.930Z,99971.84
2019-05-26T16:48:07.445Z,99979.91
2019-05-26T16:50:39.602Z,99962.99
2019-05-26T16:53:11.382Z,99968.13
2019-05-26T16:55:44.153Z,99969.02
2019-05-26T16:58:15.905Z,99968.89
2019-05-26T17:00:47.981Z,99971.63
2019-05-26T17:03:23.011Z,99972.26
2019-05-26T17:06:07.511Z,99968.03
2019-05-26T17:08:28.987Z,99961.74
2019-05-26T17:11:02.235Z,99966.97
2019-05-26T17:13:35.374Z,99974.21
2019-05-26T17:16:07.545Z,99973.62
2019-05-26T17:18:39.300Z,99981.56
2019-05-26T17:21:10.962Z,99980.50
2019-05-26T17:23:42.824Z,99988.55
2019-05-26T17:26:14.788Z,99990.39
2019-05-26T17:28:47.062Z,99988.27
2019-05-26T17:31:18.932Z,100001.45
2019-05-26T17:33:51.138Z,100000.49
2019-05-26T17:36:23.469Z,100010.44
2019-05-26T17:38:55.432Z,100010.00
2019-05-26T17:41:27.400Z,100007.02
2019-05-26T17:43:59.669Z,100010.55
2019-05-26T17:46:31.846Z,100019.00
2019-05-26T17:49:04.153Z,100020.05
2019-05-26T17:51:35.987Z,100019.06
2019-05-26T17:54:08.759Z,100023.45
2019-05-26T17:56:40.930Z,100026.89
2019-05-26T17:59:13.198Z,100028.19
2019-05-26T18:01:44.983Z,100038.87
2019-05-26T18:04:17.332Z,100037.48
2019-05-26T18:06:49.599Z,100046.03
2019-05-26T18:09:21.880Z,100041.82
2019-05-26T18:11:54.146Z,100049.42
2019-05-26T18:14:26.208Z,100046.41
2019-05-26T18:16:58.092Z,100057.66
2019-05-26T18:19:30.360Z,100055.71
2019-05-26T18:22:02.208Z,100061.83
2019-05-26T18:24:34.282Z,100056.80
2019-05-26T18:27:07.366Z,100062.56
2019-05-26T18:29:39.638Z,100058.49
2019-05-26T18:32:11.728Z,100061.17
2019-05-26T18:34:44.085Z,100063.31
2019-05-26T18:37:16.352Z,100068.66
2019-05-26T18:39:48.828Z,100068.66
2019-05-26T18:42:21.918Z,100067.91
2019-05-26T18:44:54.085Z,100079.11
2019-05-26T18:47:26.254Z,100071.51
2019-05-26T18:49:58.859Z,100078.02
2019-05-26T18:52:31.316Z,100077.05
2019-05-26T18:55:03.684Z,100083.34
2019-05-26T18:57:35.958Z,100080.84
2019-05-26T19:00:08.334Z,100078.49
2019-05-26T19:02:40.198Z,100083.38
2019-05-26T19:05:12.674Z,100079.48
2019-05-26T19:07:45.161Z,100084.59
2019-05-26T19:10:17.530Z,100084.98
2019-05-26T19:12:49.690Z,100084.23
2019-05-26T19:15:22.078Z,100091.20
2019-05-26T19:17:54.069Z,100087.77
2019-05-26T19:20:26.526Z,100096.00
2019-05-26T19:22:58.803Z,100093.70
2019-05-26T19:25:31.188Z,100103.36
2019-05-26T19:28:03.452Z,100104.81
2019-05-26T19:30:35.829Z,100106.09
2019-05-26T19:33:08.916Z,100114.63
2019-05-26T19:35:41.093Z,100113.91
2019-05-26T19:38:13.060Z,100113.34
2019-05-26T19:40:45.130Z,100116.08
2019-05-26T19:43:17.102Z,100118.34
2019-05-26T19:45:49.269Z,100124.99
2019-05-26T19:48:34.953Z,100121.49
2019-05-26T19:50:56.476Z,100123.91
2019-05-26T19:53:28.548Z,100128.80
2019-05-26T19:56:00.922Z,100132.61
2019-05-26T19:58:32.889Z,100130.97
2019-05-26T20:01:05.161Z,100132.22
2019-05-26T20:03:37.230Z,100132.97
2019-05-26T20:06:09.119Z,100135.55
2019-05-26T20:08:41.064Z,100140.43
2019-05-26T20:11:14.356Z,100142.69
2019-05-26T20:13:46.730Z,100147.22
2019-05-26T20:16:18.797Z,100148.14
2019-05-26T20:18:51.070Z,100154.25
2019-05-26T20:21:23.548Z,100157.80
2019-05-26T20:23:55.613Z,100163.92
2019-05-26T20:26:28.908Z,100167.36
2019-05-26T20:29:00.982Z,100171.32
2019-05-26T20:31:33.259Z,100181.63
2019-05-26T20:34:05.346Z,100183.69
2019-05-26T20:36:37.698Z,100180.25
2019-05-26T20:39:09.873Z,100183.59
2019-05-26T20:41:42.255Z,100182.73
2019-05-26T20:44:14.517Z,100178.77
2019-05-26T20:46:46.896Z,100176.56
2019-05-26T20:49:19.063Z,100182.38
2019-05-26T20:51:51.546Z,100183.25
2019-05-26T20:54:23.716Z,100181.33
2019-05-26T20:56:55.780Z,100188.73
2019-05-26T20:59:28.050Z,100188.99
2019-05-26T21:02:00.117Z,100190.70
2019-05-26T21:04:32.403Z,100182.11
2019-05-26T21:07:04.559Z,100180.00
2019-05-26T21:09:36.826Z,100187.14
2019-05-26T21:12:09.098Z,100191.81
2019-05-26T21:14:41.273Z,100193.61
2019-05-26T21:17:13.334Z,100188.47
2019-05-26T21:19:45.404Z,100196.70
2019-05-26T21:22:18.087Z,100188.58
2019-05-26T21:24:50.051Z,100191.23
2019-05-26T21:27:22.126Z,100203.81
2019-05-26T21:29:54.193Z,100191.52
2019-05-26T21:32:31.079Z,100198.89
2019-05-26T21:35:00.880Z,100195.18
2019-05-26T21:37:32.656Z,100203.19
2019-05-26T21:40:06.849Z,100194.99
2019-05-26T21:42:38.986Z,100201.72
2019-05-26T21:45:11.206Z,100207.89
2019-05-26T21:47:43.577Z,100207.25
2019-05-26T21:50:15.948Z,100202.11
2019-05-26T21:52:48.328Z,100209.08
2019-05-26T21:55:20.390Z,100215.61
2019-05-26T21:57:52.773Z,100210.73
2019-05-26T22:00:26.782Z,100220.01
2019-05-26T22:02:59.021Z,100220.84
2019-05-26T22:05:31.429Z,100218.94
2019-05-26T22:08:03.923Z,100223.97
2019-05-26T22:10:36.386Z,100224.55
2019-05-26T22:13:10.128Z,100229.14
2019-05-26T22:15:42.575Z,100228.14
2019-05-26T22:18:14.828Z,100239.81
2019-05-26T22:20:46.866Z,100233.41
2019-05-26T22:23:18.899Z,100232.49
2019-05-26T22:25:50.738Z,100231.58
2019-05-26T22:28:23.217Z,100235.22
2019-05-26T22:30:55.597Z,100234.23
2019-05-26T22:33:27.969Z,100254.18
2019-05-26T22:36:00.346Z,100238.24
2019-05-26T22:38:32.414Z,100241.89
2019-05-26T22:41:04.690Z,100244.67
2019-05-26T22:43:37.676Z,100257.15
2019-05-26T22:46:09.644Z,100245.11
2019-05-26T22:48:41.817Z,100248.71
2019-05-26T22:51:13.782Z,100252.53
2019-05-26T22:53:46.051Z,100240.58
2019-05-26T22:56:18.533Z,100245.18
2019-05-26T22:58:50.820Z,100251.56
2019-05-26T23:01:23.175Z,100256.11
2019-05-26T23:03:56.086Z,100250.68
2019-05-26T23:06:28.439Z,100247.55
2019-05-26T23:09:00.514Z,100243.72
2019-05-26T23:11:32.884Z,100254.14
2019-05-26T23:14:05.460Z,100258.80
2019-05-26T23:16:37.545Z,100251.66
2019-05-26T23:19:18.970Z,100248.27
2019-05-26T23:21:43.725Z,100240.91
2019-05-26T23:24:15.790Z,100244.80
2019-05-26T23:26:48.324Z,100244.20
2019-05-26T23:29:20.441Z,100242.76
2019-05-26T23:31:54.803Z,100249.70
2019-05-26T23:34:26.565Z,100247.20
2019-05-26T23:36:59.008Z,100246.64
2019-05-26T23:39:31.079Z,100249.25
2019-05-26T23:42:03.451Z,100250.80
2019-05-26T23:44:35.827Z,100251.62
2019-05-26T23:47:08.057Z,100253.78
2019-05-26T23:49:40.365Z,100261.44
2019-05-26T23:52:12.375Z,100259.00
2019-05-26T23:54:44.915Z,100255.42
2019-05-26T23:57:17.082Z,100263.44
2019-05-26T23:59:49.250Z,100256.03
